Time;durP1;ratioP1;P1;durP2;ratioP2;P2;SDS_P1;SDS_P2;PMS_P1;PMS_P2;Temp;Humidity;BMP_temperature;BMP_pressure;BME280_temperature;BME280_humidity;BME280_pressure;Samples;Min_cycle;Max_cycle;Signal;HPM_P1;HPM_P2
2023/01/10 00:01:37;;;;;;;1.00;0.90;;;;;;;;;;4945959;29;20042;-81
2023/01/10 00:04:04;;;;;;;1.85;0.70;;;;;;;;;;4961553;28;20039;-81
2023/01/10 00:06:30;;;;;;;2.17;0.98;;;;;;;;;;4963327;29;20046;-81
2023/01/10 00:08:59;;;;;;;0.80;0.80;;;;;;;;;;4963745;29;20402;-81
2023/01/10 00:14:11;;;;;;;2.30;0.98;;;;;;;;;;4973812;29;20051;-80
2023/01/10 00:16:38;;;;;;;1.85;1.00;;;;;;;;;;4971686;29;20023;-81
2023/01/10 00:19:04;;;;;;;2.17;0.93;;;;;;;;;;4963940;29;20069;-81
2023/01/10 00:21:31;;;;;;;1.58;0.75;;;;;;;;;;4963727;29;20038;-81
2023/01/10 00:24:07;;;;;;;0.30;0.30;;;;;;;;;;4945809;29;20063;-81
2023/01/10 00:26:33;;;;;;;2.90;0.77;;;;;;;;;;4961977;29;20035;-81
2023/01/10 00:28:59;;;;;;;3.88;1.27;;;;;;;;;;4949154;29;20118;-81
2023/01/10 00:31:25;;;;;;;0.73;0.68;;;;;;;;;;4963539;29;20023;-81
2023/01/10 00:33:51;;;;;;;0.95;0.90;;;;;;;;;;4964199;29;20023;-82
2023/01/10 00:36:17;;;;;;;3.88;1.13;;;;;;;;;;4962995;29;20019;-82
2023/01/10 00:38:43;;;;;;;1.13;0.68;;;;;;;;;;4964367;29;20031;-82
2023/01/10 00:43:55;;;;;;;2.05;0.70;;;;;;;;;;4963194;29;20034;-82
2023/01/10 00:43:56;;;;;;;0.75;0.73;;;;;;;;;;4978894;28;20114;-80
2023/01/10 00:46:22;;;;;;;1.17;0.90;;;;;;;;;;4965986;28;20035;-82
2023/01/10 00:48:48;;;;;;;0.88;0.82;;;;;;;;;;4970089;28;20490;-80
2023/01/10 00:51:14;;;;;;;2.50;0.88;;;;;;;;;;4996106;28;20027;-80
2023/01/10 00:53:40;;;;;;;1.25;0.88;;;;;;;;;;4987434;28;20016;-79
2023/01/10 00:56:06;;;;;;;1.88;0.95;;;;;;;;;;4976610;28;20070;-79
2023/01/10 00:58:35;;;;;;;2.58;1.10;;;;;;;;;;4963319;29;20019;-81
2023/01/10 01:01:01;;;;;;;2.55;0.80;;;;;;;;;;4963159;29;20103;-81
2023/01/10 01:03:28;;;;;;;3.88;0.88;;;;;;;;;;4951130;29;20055;-81
2023/01/10 01:05:54;;;;;;;1.17;1.00;;;;;;;;;;4949793;29;20027;-81
2023/01/10 01:08:20;;;;;;;0.82;0.82;;;;;;;;;;4972297;29;20554;-82
2023/01/10 01:10:46;;;;;;;1.38;0.82;;;;;;;;;;4947430;29;20032;-82
2023/01/10 01:13:19;;;;;;;0.90;0.90;;;;;;;;;;4941467;29;20020;-82
2023/01/10 01:15:45;;;;;;;1.10;0.70;;;;;;;;;;4974760;28;20117;-81
2023/01/10 01:18:12;;;;;;;0.60;0.60;;;;;;;;;;4984547;28;20023;-81
2023/01/10 01:20:39;;;;;;;1.00;0.73;;;;;;;;;;4977697;28;20034;-80
2023/01/10 01:23:05;;;;;;;1.40;0.88;;;;;;;;;;4958592;28;20039;-80
2023/01/10 01:25:32;;;;;;;1.85;0.95;;;;;;;;;;4976104;28;20036;-81
2023/01/10 01:27:58;;;;;;;2.05;1.08;;;;;;;;;;4949639;29;20031;-81
2023/01/10 01:30:24;;;;;;;1.63;0.80;;;;;;;;;;4972241;29;20046;-82
2023/01/10 01:32:50;;;;;;;3.05;1.30;;;;;;;;;;4948305;29;20047;-82
2023/01/10 01:35:16;;;;;;;2.03;0.90;;;;;;;;;;4970365;28;20023;-80
2023/01/10 01:37:43;;;;;;;2.95;1.05;;;;;;;;;;4977569;28;20015;-78
2023/01/10 01:40:16;;;;;;;2.78;1.42;;;;;;;;;;4977473;28;20023;-79
2023/01/10 01:42:42;;;;;;;1.35;0.77;;;;;;;;;;4976311;28;20079;-79
2023/01/10 01:45:08;;;;;;;1.10;0.60;;;;;;;;;;4959179;29;20051;-80
2023/01/10 01:47:40;;;;;;;3.03;0.57;;;;;;;;;;4976805;28;20039;-80
2023/01/10 01:50:09;;;;;;;1.92;0.88;;;;;;;;;;4965807;28;20053;-80
2023/01/10 01:52:36;;;;;;;1.98;0.73;;;;;;;;;;4971567;28;20023;-81
2023/01/10 01:55:03;;;;;;;0.95;0.77;;;;;;;;;;4952224;29;20023;-79
2023/01/10 01:57:31;;;;;;;2.08;0.70;;;;;;;;;;4971821;28;20045;-80
2023/01/10 01:59:57;;;;;;;0.95;0.50;;;;;;;;;;4956188;29;20031;-80
2023/01/10 02:02:28;;;;;;;1.63;0.70;;;;;;;;;;4956173;28;20050;-80
2023/01/10 02:04:57;;;;;;;2.20;0.70;;;;;;;;;;4957931;29;20047;-79
2023/01/10 02:07:25;;;;;;;0.80;0.43;;;;;;;;;;4976013;28;20028;-81
2023/01/10 02:09:53;;;;;;;1.00;0.50;;;;;;;;;;4975472;29;20031;-80
2023/01/10 02:12:19;;;;;;;2.70;0.80;;;;;;;;;;4976434;28;20039;-80
2023/01/10 02:14:47;;;;;;;0.90;0.50;;;;;;;;;;4977258;29;20087;-80
2023/01/10 02:17:13;;;;;;;2.63;0.82;;;;;;;;;;4974638;28;20019;-80
2023/01/10 02:19:54;;;;;;;0.45;0.45;;;;;;;;;;4955209;28;20086;-81
2023/01/10 02:22:34;;;;;;;0.90;0.50;;;;;;;;;;4971034;29;20031;-80
2023/01/10 02:25:21;;;;;;;1.52;0.55;;;;;;;;;;4975089;28;20015;-80
2023/01/10 02:27:47;;;;;;;2.20;0.60;;;;;;;;;;4965745;28;20087;-79
2023/01/10 02:30:31;;;;;;;1.52;0.68;;;;;;;;;;4963641;29;20039;-81
2023/01/10 02:32:59;;;;;;;1.98;0.70;;;;;;;;;;4944777;29;20114;-81
2023/01/10 02:35:28;;;;;;;1.80;0.77;;;;;;;;;;4963503;29;20024;-81
2023/01/10 02:38:16;;;;;;;0.77;0.70;;;;;;;;;;4949772;28;20054;-79
2023/01/10 02:40:49;;;;;;;2.58;1.00;;;;;;;;;;4985295;28;20019;-82
2023/01/10 02:43:18;;;;;;;2.40;0.80;;;;;;;;;;4950976;29;20027;-81
2023/01/10 02:45:47;;;;;;;1.30;0.60;;;;;;;;;;4948841;29;20031;-80
2023/01/10 02:48:13;;;;;;;2.38;0.75;;;;;;;;;;4972843;28;20031;-78
2023/01/10 02:50:42;;;;;;;1.77;0.63;;;;;;;;;;4975458;28;20031;-81
2023/01/10 02:53:15;;;;;;;1.83;0.70;;;;;;;;;;4965243;29;20118;-80
2023/01/10 02:55:44;;;;;;;0.98;0.50;;;;;;;;;;4949018;28;20418;-81
2023/01/10 02:58:23;;;;;;;1.80;0.80;;;;;;;;;;4948380;29;20023;-81
2023/01/10 03:00:57;;;;;;;1.40;0.80;;;;;;;;;;4948017;29;20030;-81
2023/01/10 03:03:40;;;;;;;1.75;0.57;;;;;;;;;;4964733;28;20028;-81
2023/01/10 03:06:31;;;;;;;1.13;0.73;;;;;;;;;;4965034;29;20034;-80
2023/01/10 03:09:09;;;;;;;0.25;0.25;;;;;;;;;;4966030;28;20038;-81
2023/01/10 03:11:40;;;;;;;2.63;0.70;;;;;;;;;;4965723;29;20050;-82
2023/01/10 03:14:10;;;;;;;1.55;1.02;;;;;;;;;;4966307;29;20125;-81
2023/01/10 03:16:37;;;;;;;0.98;0.60;;;;;;;;;;4950198;29;20125;-79
2023/01/10 03:19:04;;;;;;;0.60;0.50;;;;;;;;;;4967330;28;20019;-81
2023/01/10 03:21:31;;;;;;;0.90;0.60;;;;;;;;;;4980685;28;20027;-80
2023/01/10 03:24:01;;;;;;;1.17;0.70;;;;;;;;;;4969238;29;20035;-79
2023/01/10 03:26:35;;;;;;;1.45;0.57;;;;;;;;;;4971219;29;20079;-80
2023/01/10 03:29:05;;;;;;;0.60;0.43;;;;;;;;;;4975854;29;20023;-80
2023/01/10 03:31:36;;;;;;;2.00;0.47;;;;;;;;;;4977790;28;20031;-80
2023/01/10 03:34:02;;;;;;;1.40;0.50;;;;;;;;;;4977244;29;20035;-80
2023/01/10 03:36:33;;;;;;;1.20;0.63;;;;;;;;;;4971043;29;20035;-82
2023/01/10 03:39:07;;;;;;;1.88;0.63;;;;;;;;;;4967818;28;20023;-82
2023/01/10 03:41:36;;;;;;;0.60;0.50;;;;;;;;;;4976954;28;20038;-79
2023/01/10 03:47:08;;;;;;;0.35;0.35;;;;;;;;;;4949615;29;20411;-81
2023/01/10 03:49:36;;;;;;;0.50;0.50;;;;;;;;;;4945251;29;20058;-81
2023/01/10 03:52:04;;;;;;;2.17;0.40;;;;;;;;;;4962618;29;20038;-80
2023/01/10 03:54:30;;;;;;;0.82;0.40;;;;;;;;;;4975306;28;20079;-81
2023/01/10 03:56:56;;;;;;;0.55;0.50;;;;;;;;;;4964054;29;20024;-82
2023/01/10 03:59:25;;;;;;;1.40;0.70;;;;;;;;;;4963140;29;20023;-80
2023/01/10 04:01:51;;;;;;;0.65;0.60;;;;;;;;;;4962344;29;20108;-80
2023/01/10 04:04:17;;;;;;;1.95;0.68;;;;;;;;;;4941977;29;20135;-80
2023/01/10 04:06:44;;;;;;;0.93;0.88;;;;;;;;;;4944786;29;20054;-80
2023/01/10 04:12:14;;;;;;;1.30;0.75;;;;;;;;;;4973120;28;20081;-80
2023/01/10 04:14:40;;;;;;;1.85;0.50;;;;;;;;;;4943157;29;20058;-80
2023/01/10 04:17:06;;;;;;;1.15;0.70;;;;;;;;;;4946476;29;20036;-81
2023/01/10 04:19:32;;;;;;;1.45;0.60;;;;;;;;;;4962775;29;20035;-80
2023/01/10 04:21:59;;;;;;;1.08;0.82;;;;;;;;;;4945784;29;20023;-81
2023/01/10 04:24:25;;;;;;;1.23;0.70;;;;;;;;;;4945302;29;20027;-81
2023/01/10 04:26:51;;;;;;;1.60;0.68;;;;;;;;;;4963252;29;20106;-81
2023/01/10 04:29:17;;;;;;;1.83;0.90;;;;;;;;;;4963252;29;20402;-81
2023/01/10 04:31:43;;;;;;;1.00;0.60;;;;;;;;;;4963055;29;20023;-81
2023/01/10 04:34:09;;;;;;;1.50;0.75;;;;;;;;;;4961993;29;20043;-80
2023/01/10 04:36:35;;;;;;;1.55;0.77;;;;;;;;;;4961969;29;20082;-81
2023/01/10 04:39:02;;;;;;;0.98;0.77;;;;;;;;;;4962219;29;20027;-81
2023/01/10 04:41:28;;;;;;;0.90;0.90;;;;;;;;;;4962705;29;20027;-80
2023/01/10 04:43:54;;;;;;;1.45;0.90;;;;;;;;;;4963287;29;20028;-78
2023/01/10 04:46:20;;;;;;;0.82;0.70;;;;;;;;;;4967674;28;20016;-79
2023/01/10 04:48:46;;;;;;;0.60;0.60;;;;;;;;;;4976551;28;20039;-81
2023/01/10 04:51:12;;;;;;;0.57;0.57;;;;;;;;;;4963823;29;20020;-80
2023/01/10 04:53:38;;;;;;;3.10;1.65;;;;;;;;;;4973184;28;20031;-80
2023/01/10 04:56:05;;;;;;;1.85;0.80;;;;;;;;;;4952469;29;20474;-81
2023/01/10 04:58:32;;;;;;;1.23;0.80;;;;;;;;;;4963278;29;20024;-82
2023/01/10 05:00:59;;;;;;;1.50;0.85;;;;;;;;;;4963363;29;20030;-81
2023/01/10 05:03:25;;;;;;;0.70;0.70;;;;;;;;;;4963008;29;20051;-81
2023/01/10 05:05:51;;;;;;;1.13;1.00;;;;;;;;;;4962539;29;20023;-83
2023/01/10 05:08:17;;;;;;;2.50;1.25;;;;;;;;;;4962835;29;20031;-82
2023/01/10 05:10:43;;;;;;;0.80;0.80;;;;;;;;;;4957805;28;20031;-82
2023/01/10 05:13:09;;;;;;;1.20;1.10;;;;;;;;;;4974743;28;20015;-82
2023/01/10 05:15:35;;;;;;;1.15;1.15;;;;;;;;;;4963182;29;20054;-82
2023/01/10 05:18:01;;;;;;;2.00;1.15;;;;;;;;;;4962528;29;20027;-79
2023/01/10 05:20:27;;;;;;;1.27;1.17;;;;;;;;;;4963496;29;20410;-81
2023/01/10 05:22:53;;;;;;;1.02;0.95;;;;;;;;;;4965115;29;20030;-82
2023/01/10 05:25:19;;;;;;;1.00;0.95;;;;;;;;;;4964316;29;20030;-82
2023/01/10 05:27:45;;;;;;;1.33;1.10;;;;;;;;;;4969735;28;20047;-81
2023/01/10 05:30:12;;;;;;;1.02;1.02;;;;;;;;;;4964119;29;20042;-83
2023/01/10 05:32:38;;;;;;;1.35;1.00;;;;;;;;;;4967910;29;20011;-83
2023/01/10 05:35:06;;;;;;;1.05;1.00;;;;;;;;;;4969130;29;20051;-82
2023/01/10 05:37:32;;;;;;;1.13;1.13;;;;;;;;;;4968950;28;20028;-80
2023/01/10 05:39:58;;;;;;;1.40;1.10;;;;;;;;;;4968562;29;20036;-83
2023/01/10 05:42:24;;;;;;;1.58;1.20;;;;;;;;;;4968095;29;20041;-85
2023/01/10 05:44:50;;;;;;;0.90;0.80;;;;;;;;;;4951552;29;20030;-82
2023/01/10 05:47:16;;;;;;;1.42;1.10;;;;;;;;;;4972843;28;20037;-83
2023/01/10 05:49:42;;;;;;;1.58;1.25;;;;;;;;;;4988693;28;20537;-82
2023/01/10 05:52:08;;;;;;;1.73;1.27;;;;;;;;;;4988634;28;20417;-82
2023/01/10 05:54:34;;;;;;;1.23;1.10;;;;;;;;;;4969254;28;20043;-83
2023/01/10 05:57:01;;;;;;;0.80;0.80;;;;;;;;;;4962504;29;20023;-83
2023/01/10 05:59:27;;;;;;;0.80;0.80;;;;;;;;;;4963487;28;20097;-83
2023/01/10 06:01:53;;;;;;;2.83;1.10;;;;;;;;;;4950435;29;20030;-81
2023/01/10 06:04:19;;;;;;;1.10;0.95;;;;;;;;;;4961540;29;20039;-80
2023/01/10 06:06:45;;;;;;;0.85;0.68;;;;;;;;;;4977202;29;20020;-83
2023/01/10 06:09:11;;;;;;;1.15;0.90;;;;;;;;;;4987744;28;20046;-79
2023/01/10 06:11:37;;;;;;;0.77;0.77;;;;;;;;;;4998785;28;20047;-81
2023/01/10 06:14:06;;;;;;;0.52;0.52;;;;;;;;;;4964380;28;20035;-79
2023/01/10 06:16:32;;;;;;;0.52;0.52;;;;;;;;;;4978557;29;20007;-80
2023/01/10 06:18:58;;;;;;;3.00;0.70;;;;;;;;;;4975662;29;20406;-81
2023/01/10 06:21:24;;;;;;;0.77;0.77;;;;;;;;;;4973266;28;20034;-80
2023/01/10 06:23:51;;;;;;;0.60;0.60;;;;;;;;;;4960135;29;20054;-80
2023/01/10 06:26:17;;;;;;;0.70;0.70;;;;;;;;;;4978979;29;20031;-80
2023/01/10 06:28:43;;;;;;;1.40;0.60;;;;;;;;;;4981171;28;20023;-78
2023/01/10 06:31:09;;;;;;;1.10;0.95;;;;;;;;;;4961233;29;20023;-79
2023/01/10 06:33:37;;;;;;;2.20;0.45;;;;;;;;;;4979347;29;20075;-79
2023/01/10 06:36:04;;;;;;;0.82;0.82;;;;;;;;;;4957698;29;20019;-80
2023/01/10 06:38:30;;;;;;;1.23;0.73;;;;;;;;;;4975366;29;20034;-82
2023/01/10 06:40:56;;;;;;;0.95;0.73;;;;;;;;;;4991555;28;20027;-81
2023/01/10 06:43:22;;;;;;;1.38;0.90;;;;;;;;;;4971536;28;20038;-81
2023/01/10 06:45:49;;;;;;;0.93;0.60;;;;;;;;;;4974381;28;20027;-79
2023/01/10 06:48:15;;;;;;;0.80;0.68;;;;;;;;;;4975495;28;20038;-83
2023/01/10 06:50:42;;;;;;;0.70;0.70;;;;;;;;;;4963552;28;20041;-83
2023/01/10 06:53:08;;;;;;;0.73;0.65;;;;;;;;;;4977330;28;20041;-82
2023/01/10 06:55:34;;;;;;;1.85;0.63;;;;;;;;;;4965225;29;20062;-83
2023/01/10 06:58:03;;;;;;;1.13;0.88;;;;;;;;;;4965584;29;20034;-82
2023/01/10 07:00:30;;;;;;;1.27;0.68;;;;;;;;;;4975680;28;20049;-82
2023/01/10 07:02:59;;;;;;;1.33;0.63;;;;;;;;;;4977595;28;20019;-82
2023/01/10 07:05:25;;;;;;;1.65;0.95;;;;;;;;;;4965986;29;20031;-81
2023/01/10 07:07:52;;;;;;;1.05;0.80;;;;;;;;;;4964800;29;20027;-81
2023/01/10 07:10:18;;;;;;;0.90;0.82;;;;;;;;;;4971554;28;20061;-82
2023/01/10 07:12:44;;;;;;;4.25;0.70;;;;;;;;;;4965189;28;20510;-82
2023/01/10 07:15:10;;;;;;;0.70;0.70;;;;;;;;;;4963863;29;20518;-83
2023/01/10 07:17:36;;;;;;;3.17;1.17;;;;;;;;;;4965458;29;20042;-81
2023/01/10 07:20:02;;;;;;;0.98;0.80;;;;;;;;;;4965444;28;20031;-83
2023/01/10 07:22:28;;;;;;;0.65;0.65;;;;;;;;;;4965454;29;20055;-81
2023/01/10 07:24:55;;;;;;;0.90;0.90;;;;;;;;;;4963299;29;20027;-81
2023/01/10 07:27:21;;;;;;;0.65;0.65;;;;;;;;;;4962100;29;20038;-83
2023/01/10 07:29:47;;;;;;;0.85;0.85;;;;;;;;;;4967430;29;20497;-82
2023/01/10 07:32:13;;;;;;;0.80;0.80;;;;;;;;;;4968337;28;20043;-79
2023/01/10 07:34:39;;;;;;;1.10;1.00;;;;;;;;;;4977424;28;20035;-78
2023/01/10 07:37:05;;;;;;;0.90;0.90;;;;;;;;;;4979079;29;20019;-79
2023/01/10 07:39:37;;;;;;;1.90;0.95;;;;;;;;;;4980110;28;20027;-78
2023/01/10 07:42:04;;;;;;;2.05;1.40;;;;;;;;;;4981652;28;20027;-78
2023/01/10 07:44:31;;;;;;;0.80;0.80;;;;;;;;;;4970350;28;20066;-78
2023/01/10 07:46:57;;;;;;;5.68;1.33;;;;;;;;;;4979944;28;20043;-79
2023/01/10 07:49:23;;;;;;;1.63;1.15;;;;;;;;;;4978194;28;20038;-80
2023/01/10 07:51:49;;;;;;;1.92;1.20;;;;;;;;;;4981265;28;20026;-82
2023/01/10 07:54:15;;;;;;;1.23;1.13;;;;;;;;;;4951159;29;20042;-80
2023/01/10 07:56:41;;;;;;;4.15;1.45;;;;;;;;;;4959732;29;20027;-80
2023/01/10 07:59:07;;;;;;;1.13;1.00;;;;;;;;;;4975516;29;20122;-80
2023/01/10 08:01:33;;;;;;;3.80;2.00;;;;;;;;;;4975034;28;20055;-79
2023/01/10 08:03:59;;;;;;;1.67;1.10;;;;;;;;;;4958383;29;20030;-80
2023/01/10 08:06:25;;;;;;;4.60;1.42;;;;;;;;;;4975899;28;20039;-80
2023/01/10 08:08:51;;;;;;;1.85;1.33;;;;;;;;;;4959263;29;20030;-79
2023/01/10 08:11:18;;;;;;;5.03;1.80;;;;;;;;;;4975602;28;20099;-79
2023/01/10 08:13:44;;;;;;;3.22;1.75;;;;;;;;;;4964534;28;20075;-80
2023/01/10 08:16:10;;;;;;;2.70;1.40;;;;;;;;;;4954853;29;20145;-80
2023/01/10 08:18:37;;;;;;;2.08;1.52;;;;;;;;;;4954926;29;20032;-80
2023/01/10 08:21:04;;;;;;;4.45;1.50;;;;;;;;;;4952453;29;20031;-80
2023/01/10 08:23:31;;;;;;;2.10;1.30;;;;;;;;;;4970379;28;20035;-80
2023/01/10 08:25:58;;;;;;;2.72;1.42;;;;;;;;;;4968592;29;20047;-80
2023/01/10 08:28:24;;;;;;;1.95;1.20;;;;;;;;;;4953431;29;20043;-79
2023/01/10 08:30:54;;;;;;;4.75;1.83;;;;;;;;;;4973001;29;20030;-82
2023/01/10 08:33:21;;;;;;;5.20;2.30;;;;;;;;;;4972567;28;20022;-80
2023/01/10 08:35:47;;;;;;;2.70;1.83;;;;;;;;;;4972271;29;20058;-82
2023/01/10 08:38:13;;;;;;;3.58;1.77;;;;;;;;;;4965606;28;20019;-82
2023/01/10 08:40:39;;;;;;;7.03;2.30;;;;;;;;;;4965402;29;20397;-82
2023/01/10 08:43:06;;;;;;;2.28;1.73;;;;;;;;;;4969317;28;20031;-82
2023/01/10 08:45:33;;;;;;;2.97;2.10;;;;;;;;;;4980798;28;20042;-80
2023/01/10 08:47:59;;;;;;;5.97;1.77;;;;;;;;;;4989556;28;20149;-82
2023/01/10 08:50:25;;;;;;;3.45;1.52;;;;;;;;;;4985761;28;20029;-81
2023/01/10 08:52:51;;;;;;;7.00;1.48;;;;;;;;;;4972162;28;20015;-79
2023/01/10 08:55:25;;;;;;;1.92;1.80;;;;;;;;;;5091850;28;20386;-80
2023/01/10 08:57:51;;;;;;;2.67;1.38;;;;;;;;;;5113134;28;20037;-82
2023/01/10 09:00:17;;;;;;;3.72;1.65;;;;;;;;;;5109117;28;20103;-83
2023/01/10 09:02:43;;;;;;;4.80;1.67;;;;;;;;;;5094867;28;20445;-81
2023/01/10 09:05:10;;;;;;;2.33;1.50;;;;;;;;;;5079482;28;20103;-80
2023/01/10 09:07:45;;;;;;;1.45;1.05;;;;;;;;;;5089146;28;20036;-82
2023/01/10 09:10:11;;;;;;;1.48;0.82;;;;;;;;;;5090734;28;20025;-80
2023/01/10 09:12:57;;;;;;;5.72;1.25;;;;;;;;;;5088809;28;20025;-82
2023/01/10 09:15:24;;;;;;;1.60;1.15;;;;;;;;;;5083979;28;20067;-80
2023/01/10 09:17:58;;;;;;;3.50;1.17;;;;;;;;;;5083698;28;20078;-82
2023/01/10 09:20:25;;;;;;;2.88;1.10;;;;;;;;;;5083116;28;20120;-80
2023/01/10 09:22:51;;;;;;;1.05;0.95;;;;;;;;;;5083296;28;20036;-80
2023/01/10 09:25:17;;;;;;;2.35;0.75;;;;;;;;;;5080967;28;20035;-80
2023/01/10 09:27:44;;;;;;;2.88;1.15;;;;;;;;;;5098499;28;20036;-82
2023/01/10 09:30:10;;;;;;;2.58;1.00;;;;;;;;;;5104457;28;20024;-81
2023/01/10 09:32:36;;;;;;;3.78;1.08;;;;;;;;;;5103140;28;20042;-81
2023/01/10 09:35:03;;;;;;;2.55;1.00;;;;;;;;;;5093017;28;20292;-84
2023/01/10 09:37:32;;;;;;;0.75;0.70;;;;;;;;;;5062096;28;20046;-83
2023/01/10 09:39:58;;;;;;;2.78;1.10;;;;;;;;;;5064061;28;20022;-83
2023/01/10 09:42:39;;;;;;;3.38;1.60;;;;;;;;;;5065297;28;20029;-82
2023/01/10 09:45:14;;;;;;;3.05;1.38;;;;;;;;;;5069585;28;20044;-79
2023/01/10 09:47:40;;;;;;;4.45;1.58;;;;;;;;;;5085256;28;20139;-82
2023/01/10 09:50:18;;;;;;;9.82;1.83;;;;;;;;;;5086858;28;20079;-84
2023/01/10 09:52:47;;;;;;;6.00;2.00;;;;;;;;;;5087031;28;20033;-82
2023/01/10 09:55:22;;;;;;;6.63;1.77;;;;;;;;;;5082582;28;20104;-83
2023/01/10 09:57:49;;;;;;;4.38;1.63;;;;;;;;;;5093454;28;20037;-82
2023/01/10 10:00:17;;;;;;;5.82;1.30;;;;;;;;;;5087753;28;20036;-82
2023/01/10 10:02:45;;;;;;;5.30;1.45;;;;;;;;;;5081330;28;20141;-83
2023/01/10 10:05:13;;;;;;;4.95;1.33;;;;;;;;;;5076140;28;20021;-83
2023/01/10 10:07:39;;;;;;;4.95;1.52;;;;;;;;;;5049890;28;20040;-82
2023/01/10 10:10:06;;;;;;;3.92;1.50;;;;;;;;;;5049246;28;20056;-83
2023/01/10 10:12:38;;;;;;;4.22;1.88;;;;;;;;;;5044379;28;20139;-82
2023/01/10 10:15:23;;;;;;;7.72;1.70;;;;;;;;;;5045280;28;20030;-83
2023/01/10 10:18:13;;;;;;;4.28;1.40;;;;;;;;;;5043907;28;20493;-82
2023/01/10 10:21:03;;;;;;;2.40;1.02;;;;;;;;;;5042886;28;20498;-84
2023/01/10 10:23:42;;;;;;;7.28;1.50;;;;;;;;;;5051404;28;20056;-82
2023/01/10 10:26:34;;;;;;;6.07;1.42;;;;;;;;;;5053117;28;20037;-83
2023/01/10 10:29:25;;;;;;;6.20;1.67;;;;;;;;;;5052569;28;20034;-84
2023/01/10 10:32:29;;;;;;;4.05;1.48;;;;;;;;;;5053073;28;20432;-82
2023/01/10 10:35:12;;;;;;;3.35;1.40;;;;;;;;;;5051872;28;20053;-83
2023/01/10 10:37:43;;;;;;;8.73;1.77;;;;;;;;;;5052895;28;20083;-82
2023/01/10 10:40:13;;;;;;;5.07;1.27;;;;;;;;;;5066557;28;20017;-82
2023/01/10 10:42:42;;;;;;;4.15;1.55;;;;;;;;;;5070268;28;20120;-81
2023/01/10 10:45:17;;;;;;;6.63;1.20;;;;;;;;;;5077931;28;20048;-80
2023/01/10 10:47:48;;;;;;;8.73;1.95;;;;;;;;;;5071498;28;20086;-81
2023/01/10 10:50:14;;;;;;;4.00;1.15;;;;;;;;;;5064705;28;20120;-81
2023/01/10 10:52:57;;;;;;;7.43;1.35;;;;;;;;;;5067199;28;20029;-81
2023/01/10 10:55:55;;;;;;;11.70;2.17;;;;;;;;;;5071252;28;20083;-82
2023/01/10 10:58:21;;;;;;;3.78;1.20;;;;;;;;;;5068786;28;20037;-84
2023/01/10 11:00:47;;;;;;;7.65;1.30;;;;;;;;;;5064807;28;20044;-83
2023/01/10 11:03:17;;;;;;;4.30;1.10;;;;;;;;;;5061777;28;20017;-81
2023/01/10 11:05:45;;;;;;;7.97;1.50;;;;;;;;;;5062293;28;20036;-82
2023/01/10 11:08:12;;;;;;;4.18;1.08;;;;;;;;;;5073260;28;20063;-80
2023/01/10 11:10:39;;;;;;;7.38;1.08;;;;;;;;;;5068032;28;20068;-81
2023/01/10 11:13:08;;;;;;;4.20;1.27;;;;;;;;;;5063012;28;20021;-81
2023/01/10 11:15:37;;;;;;;8.98;1.40;;;;;;;;;;5061909;28;20033;-82
2023/01/10 11:18:10;;;;;;;5.00;1.33;;;;;;;;;;5061407;28;20048;-83
2023/01/10 11:20:36;;;;;;;7.15;1.17;;;;;;;;;;5062244;28;20116;-82
2023/01/10 11:23:02;;;;;;;5.90;1.52;;;;;;;;;;5060946;28;20134;-81
2023/01/10 11:25:29;;;;;;;4.20;0.80;;;;;;;;;;5061610;28;20036;-82
2023/01/10 11:28:00;;;;;;;5.78;1.80;;;;;;;;;;5061369;28;20048;-81
2023/01/10 11:30:33;;;;;;;4.82;1.20;;;;;;;;;;5060620;28;20017;-81
2023/01/10 11:33:05;;;;;;;5.10;1.08;;;;;;;;;;5060591;28;20072;-80
2023/01/10 11:35:40;;;;;;;6.30;0.98;;;;;;;;;;5062983;28;20048;-83
2023/01/10 11:38:06;;;;;;;2.47;1.10;;;;;;;;;;5061314;28;20051;-80
2023/01/10 11:40:33;;;;;;;5.43;1.23;;;;;;;;;;5045441;28;20025;-81
2023/01/10 11:42:59;;;;;;;8.73;1.88;;;;;;;;;;5042407;28;20040;-81
2023/01/10 11:45:30;;;;;;;5.38;1.13;;;;;;;;;;5061326;28;20090;-82
2023/01/10 11:47:59;;;;;;;7.47;1.50;;;;;;;;;;5062189;28;20032;-81
2023/01/10 11:50:30;;;;;;;6.38;1.45;;;;;;;;;;5063963;28;20063;-82
2023/01/10 11:52:59;;;;;;;9.15;1.63;;;;;;;;;;5063447;28;20027;-81
2023/01/10 11:55:27;;;;;;;5.32;1.13;;;;;;;;;;5070617;28;20028;-82
2023/01/10 11:58:05;;;;;;;3.15;0.82;;;;;;;;;;5075552;28;20019;-80
2023/01/10 12:00:40;;;;;;;7.80;1.30;;;;;;;;;;5076053;28;20081;-81
2023/01/10 12:03:15;;;;;;;4.80;1.30;;;;;;;;;;5075667;28;20036;-80
2023/01/10 12:05:52;;;;;;;7.13;2.55;;;;;;;;;;5075417;28;20024;-80
2023/01/10 12:08:35;;;;;;;3.55;0.98;;;;;;;;;;5072452;28;20099;-80
2023/01/10 12:11:03;;;;;;;5.43;1.38;;;;;;;;;;5075442;28;20040;-81
2023/01/10 12:13:30;;;;;;;5.97;1.70;;;;;;;;;;5075397;28;20021;-80
2023/01/10 12:16:14;;;;;;;3.80;1.20;;;;;;;;;;5071194;28;20058;-81
2023/01/10 12:18:41;;;;;;;6.43;1.10;;;;;;;;;;5072827;28;20092;-82
2023/01/10 12:21:11;;;;;;;4.60;1.35;;;;;;;;;;5070984;28;20128;-81
2023/01/10 12:23:40;;;;;;;8.75;1.50;;;;;;;;;;5063643;28;20059;-79
2023/01/10 12:26:06;;;;;;;5.13;0.70;;;;;;;;;;5071289;28;20174;-79
2023/01/10 12:28:34;;;;;;;3.85;1.05;;;;;;;;;;5066560;28;20127;-80
2023/01/10 12:31:01;;;;;;;7.90;1.48;;;;;;;;;;5062337;28;20025;-82
2023/01/10 12:33:33;;;;;;;4.10;1.05;;;;;;;;;;5060007;28;20052;-83
2023/01/10 12:35:59;;;;;;;;;;;;;;;;;;5062121;28;20021;-82
2023/01/10 12:44:10;;;;;;;6.22;1.58;;;;;;;;;;5061905;28;20023;-83
2023/01/10 12:44:11;;;;;;;5.60;1.23;;;;;;;;;;5061658;28;20036;-83
2023/01/10 12:46:57;;;;;;;4.78;1.33;;;;;;;;;;5062956;28;20040;-82
2023/01/10 12:49:32;;;;;;;4.53;0.90;;;;;;;;;;5063156;28;20036;-82
2023/01/10 12:52:00;;;;;;;2.65;0.93;;;;;;;;;;5053419;28;20070;-83
2023/01/10 12:54:28;;;;;;;6.90;1.23;;;;;;;;;;5050797;28;20029;-82
2023/01/10 12:56:55;;;;;;;4.30;1.00;;;;;;;;;;5066156;28;20021;-80
2023/01/10 12:59:34;;;;;;;4.45;1.20;;;;;;;;;;5083803;28;20088;-82
2023/01/10 13:02:01;;;;;;;6.95;1.50;;;;;;;;;;5081784;28;20036;-81
2023/01/10 13:04:29;;;;;;;5.80;1.00;;;;;;;;;;5064312;28;20041;-83
2023/01/10 13:06:55;;;;;;;3.20;1.13;;;;;;;;;;5069245;28;20017;-79
2023/01/10 13:09:27;;;;;;;5.03;1.08;;;;;;;;;;5073908;28;20031;-83
2023/01/10 13:12:06;;;;;;;4.18;1.08;;;;;;;;;;5061788;28;20116;-82
2023/01/10 13:14:45;;;;;;;4.50;1.00;;;;;;;;;;5057646;28;20025;-82
2023/01/10 13:17:27;;;;;;;5.90;2.05;;;;;;;;;;5042000;28;20141;-82
2023/01/10 13:20:12;;;;;;;8.98;0.95;;;;;;;;;;5043558;28;20013;-83
2023/01/10 13:22:38;;;;;;;3.08;1.30;;;;;;;;;;5042320;28;20018;-83
2023/01/10 13:25:04;;;;;;;6.55;1.30;;;;;;;;;;5063046;28;20089;-82
2023/01/10 13:27:34;;;;;;;7.88;1.60;;;;;;;;;;5063089;28;20079;-82
2023/01/10 13:30:01;;;;;;;2.95;1.20;;;;;;;;;;5062755;28;20500;-82
2023/01/10 13:32:27;;;;;;;6.68;1.48;;;;;;;;;;5062861;28;20404;-81
2023/01/10 13:34:53;;;;;;;3.05;1.10;;;;;;;;;;5042355;28;20494;-82
2023/01/10 13:37:19;;;;;;;5.25;1.40;;;;;;;;;;5041341;28;20049;-82
2023/01/10 13:39:51;;;;;;;6.03;0.90;;;;;;;;;;5039746;28;20414;-83
2023/01/10 13:45:10;;;;;;;8.93;1.33;;;;;;;;;;5045388;28;20097;-83
2023/01/10 13:47:39;;;;;;;4.15;1.20;;;;;;;;;;5044864;28;20025;-84
2023/01/10 13:50:41;;;;;;;6.68;1.42;;;;;;;;;;5047366;28;20107;-83
2023/01/10 13:53:07;;;;;;;3.85;1.00;;;;;;;;;;5045556;28;20048;-82
2023/01/10 13:55:44;;;;;;;2.05;0.80;;;;;;;;;;5068706;28;20039;-82
2023/01/10 13:58:18;;;;;;;5.50;0.95;;;;;;;;;;5073704;28;20009;-83
2023/01/10 14:03:42;;;;;;;4.28;1.08;;;;;;;;;;5072943;28;20101;-81
2023/01/10 14:06:31;;;;;;;4.03;1.20;;;;;;;;;;5072962;28;20028;-81
2023/01/10 14:09:02;;;;;;;2.92;0.98;;;;;;;;;;5061915;28;20061;-84
2023/01/10 14:11:30;;;;;;;5.03;1.00;;;;;;;;;;5065401;28;20513;-84
2023/01/10 14:13:57;;;;;;;8.23;1.00;;;;;;;;;;5065318;28;20041;-82
2023/01/10 14:16:34;;;;;;;3.30;0.93;;;;;;;;;;5044682;28;20079;-84
2023/01/10 14:19:01;;;;;;;4.78;0.90;;;;;;;;;;5063151;28;20032;-83
2023/01/10 14:21:28;;;;;;;5.82;1.25;;;;;;;;;;5068492;28;20060;-84
2023/01/10 14:23:55;;;;;;;7.03;1.27;;;;;;;;;;5065522;28;20076;-82
2023/01/10 14:26:32;;;;;;;4.72;1.38;;;;;;;;;;5065316;28;20021;-81
2023/01/10 14:28:59;;;;;;;4.55;1.13;;;;;;;;;;5065287;28;20032;-84
2023/01/10 14:31:52;;;;;;;5.00;0.85;;;;;;;;;;5071989;28;20017;-83
2023/01/10 14:34:22;;;;;;;4.93;1.48;;;;;;;;;;5076635;28;20033;-82
2023/01/10 14:36:55;;;;;;;2.90;1.08;;;;;;;;;;5068262;28;20029;-84
2023/01/10 14:39:21;;;;;;;;;;;;;;;;;;5063893;28;20040;-84
2023/01/10 14:41:51;;;;;;;6.60;1.40;;;;;;;;;;5063797;28;19923;-81
2023/01/10 14:44:32;;;;;;;3.53;1.15;;;;;;;;;;5063772;28;20056;-81
2023/01/10 14:47:03;;;;;;;2.60;0.70;;;;;;;;;;5062982;28;20032;-80
2023/01/10 14:49:36;;;;;;;7.80;1.20;;;;;;;;;;5063706;28;20040;-81
2023/01/10 14:52:12;;;;;;;5.38;1.10;;;;;;;;;;5045473;23;20052;-80
2023/01/10 14:54:38;;;;;;;6.57;1.08;;;;;;;;;;5047258;28;20051;-79
2023/01/10 14:57:15;;;;;;;2.25;0.85;;;;;;;;;;5034346;28;20036;-80
2023/01/10 14:59:41;;;;;;;3.58;0.85;;;;;;;;;;5026381;28;20038;-80
2023/01/10 15:02:19;;;;;;;4.05;1.25;;;;;;;;;;5026111;28;20026;-81
2023/01/10 15:04:52;;;;;;;6.82;1.27;;;;;;;;;;5023923;28;20026;-80
2023/01/10 15:07:21;;;;;;;3.20;1.02;;;;;;;;;;5025854;28;20021;-81
2023/01/10 15:09:48;;;;;;;6.95;1.33;;;;;;;;;;5023391;28;20026;-78
2023/01/10 15:12:16;;;;;;;7.05;0.90;;;;;;;;;;5029865;28;20026;-78
2023/01/10 15:14:42;;;;;;;1.90;1.00;;;;;;;;;;5031676;28;20410;-78